createdAt,value
2022-09-12T00:00:35.567Z,101000.88
2022-09-12T00:03:02.982Z,101035.44
2022-09-12T00:05:30.966Z,101021.47
2022-09-12T00:07:57.442Z,101019.34
2022-09-12T00:10:23.880Z,101026.34
2022-09-12T00:12:50.397Z,101016.81
2022-09-12T00:15:16.900Z,101025.63
2022-09-12T00:17:43.646Z,101015.97
2022-09-12T00:20:10.989Z,101031.69
2022-09-12T00:22:38.629Z,101029.00
2022-09-12T00:25:05.592Z,101026.47
2022-09-12T00:27:32.110Z,101020.13
2022-09-12T00:29:58.551Z,101021.13
2022-09-12T00:32:25.368Z,100983.41
2022-09-12T00:34:51.813Z,101013.84
2022-09-12T00:37:18.311Z,101018.88
2022-09-12T00:39:44.804Z,101005.63
2022-09-12T00:42:11.958Z,100989.13
2022-09-12T00:44:38.491Z,101013.94
2022-09-12T00:47:04.918Z,101007.09
2022-09-12T00:49:49.653Z,101005.81
2022-09-12T00:52:42.220Z,100995.78
2022-09-12T00:55:24.858Z,100998.59
2022-09-12T00:57:54.528Z,100990.78
2022-09-12T01:00:23.630Z,100992.84
2022-09-12T01:02:55.986Z,100984.44
2022-09-12T01:05:23.601Z,100982.50
2022-09-12T01:07:50.903Z,100976.78
2022-09-12T01:10:17.994Z,100961.59
2022-09-12T01:12:45.551Z,100938.28
2022-09-12T01:15:12.395Z,100971.34
2022-09-12T01:18:24.048Z,100977.13
2022-09-12T01:21:00.054Z,100976.97
2022-09-12T01:23:50.425Z,100970.06
2022-09-12T01:26:58.425Z,100971.91
2022-09-12T01:29:32.988Z,100957.38
2022-09-12T01:32:33.583Z,100967.78
2022-09-12T01:35:22.870Z,100971.38
2022-09-12T01:38:25.505Z,100968.13
2022-09-12T01:41:27.475Z,100970.16
2022-09-12T01:44:18.526Z,100964.34
2022-09-12T01:47:03.299Z,100963.72
2022-09-12T01:49:34.124Z,100947.84
2022-09-12T01:52:08.869Z,100950.59
2022-09-12T01:54:40.348Z,100917.25
2022-09-12T01:57:12.558Z,100949.63
2022-09-12T01:59:44.361Z,100951.84
2022-09-12T02:02:33.002Z,100952.81
2022-09-12T02:05:09.870Z,100954.16
2022-09-12T02:07:44.343Z,100942.22
2022-09-12T02:10:15.258Z,100931.09
2022-09-12T02:12:52.538Z,100933.00
2022-09-12T02:15:21.193Z,100954.09
2022-09-12T02:17:50.168Z,100949.31
2022-09-12T02:20:37.451Z,100914.34
2022-09-12T02:23:12.680Z,100906.88
2022-09-12T02:25:43.017Z,100951.78
2022-09-12T02:28:17.856Z,100927.31
2022-09-12T02:31:09.148Z,100947.75
2022-09-12T02:33:47.047Z,100955.16
2022-09-12T02:36:52.141Z,100845.97
2022-09-12T02:39:20.848Z,100956.84
2022-09-12T02:41:50.421Z,100913.03
2022-09-12T02:44:16.875Z,100947.03
2022-09-12T02:46:46.794Z,100946.25
2022-09-12T02:49:13.935Z,100916.56
2022-09-12T02:51:40.480Z,100905.25
2022-09-12T02:54:07.748Z,100935.31
2022-09-12T02:56:34.247Z,100920.22
2022-09-12T02:59:07.105Z,100905.75
2022-09-12T03:01:49.154Z,100924.47
2022-09-12T03:04:37.619Z,100920.41
2022-09-12T03:07:42.754Z,100924.66
2022-09-12T03:10:19.740Z,100922.13
2022-09-12T03:12:59.416Z,100928.88
2022-09-12T03:15:36.326Z,100924.81
2022-09-12T03:18:29.132Z,100927.56
2022-09-12T03:21:01.950Z,100921.19
2022-09-12T03:23:38.838Z,100925.50
2022-09-12T03:26:54.863Z,100928.41
2022-09-12T03:29:22.028Z,100932.41
2022-09-12T03:31:53.618Z,100916.56
2022-09-12T03:34:21.481Z,100921.00
2022-09-12T03:36:48.945Z,100922.44
2022-09-12T03:39:16.193Z,100924.03
2022-09-12T03:41:42.810Z,100913.19
2022-09-12T03:44:09.362Z,100917.63
2022-09-12T03:46:36.068Z,100917.63
2022-09-12T03:49:02.657Z,100915.63
2022-09-12T03:51:29.337Z,100886.91
2022-09-12T03:53:55.878Z,100910.25
2022-09-12T03:56:22.532Z,100912.03
2022-09-12T03:58:48.939Z,100898.41
2022-09-12T04:01:17.558Z,100875.84
2022-09-12T04:03:45.402Z,100911.88
2022-09-12T04:06:14.571Z,100911.66
2022-09-12T04:08:41.935Z,100902.69
2022-09-12T04:11:11.270Z,100916.84
2022-09-12T04:13:39.016Z,100919.38
2022-09-12T04:16:07.341Z,100910.13
2022-09-12T04:18:34.583Z,100906.66
2022-09-12T04:21:16.472Z,100912.88
2022-09-12T04:23:43.133Z,100908.66
2022-09-12T04:26:10.337Z,100900.59
2022-09-12T04:28:38.395Z,100910.72
2022-09-12T04:31:07.602Z,100909.81
2022-09-12T04:33:35.425Z,100910.19
2022-09-12T04:36:07.517Z,100907.22
2022-09-12T04:38:35.507Z,100900.09
2022-09-12T04:41:10.719Z,100883.09
2022-09-12T04:43:37.146Z,100895.50
2022-09-12T04:46:08.344Z,100905.31
2022-09-12T04:48:34.916Z,100894.66
2022-09-12T04:51:18.602Z,100897.56
2022-09-12T04:53:49.293Z,100847.34
2022-09-12T04:56:16.025Z,100897.41
2022-09-12T04:58:42.578Z,100897.56
2022-09-12T05:01:11.408Z,100879.25
2022-09-12T05:03:39.521Z,100894.97
2022-09-12T05:06:11.970Z,100889.59
2022-09-12T05:08:38.500Z,100889.53
2022-09-12T05:11:07.399Z,100891.91
2022-09-12T05:13:34.441Z,100873.81
2022-09-12T05:16:02.535Z,100898.25
2022-09-12T05:18:31.514Z,100889.28
2022-09-12T05:21:00.170Z,100892.66
2022-09-12T05:23:27.712Z,100882.47
2022-09-12T05:25:55.850Z,100892.19
2022-09-12T05:28:24.642Z,100890.94
2022-09-12T05:31:21.550Z,100890.34
2022-09-12T05:33:49.573Z,100890.66
2022-09-12T05:36:22.028Z,100854.75
2022-09-12T05:38:48.676Z,100869.91
2022-09-12T05:41:26.893Z,100891.72
2022-09-12T05:43:55.148Z,100881.88
2022-09-12T05:46:24.170Z,100879.88
2022-09-12T05:48:55.638Z,100870.66
2022-09-12T05:51:25.437Z,100882.31
2022-09-12T05:53:57.355Z,100862.09
2022-09-12T05:56:26.190Z,100868.22
2022-09-12T05:59:01.848Z,100865.88
2022-09-12T06:01:30.157Z,100885.97
2022-09-12T06:04:00.573Z,100885.84
2022-09-12T06:06:28.127Z,100869.22
2022-09-12T06:08:58.351Z,100880.22
2022-09-12T06:11:27.361Z,100885.63
2022-09-12T06:13:54.127Z,100882.31
2022-09-12T06:16:22.570Z,100885.34
2022-09-12T06:18:51.824Z,100876.09
2022-09-12T06:21:18.762Z,100883.38
2022-09-12T06:23:48.154Z,100883.06
2022-09-12T06:26:16.637Z,100849.78
2022-09-12T06:28:44.970Z,100847.47
2022-09-12T06:31:20.315Z,100879.41
2022-09-12T06:33:52.118Z,100877.22
2022-09-12T06:36:22.662Z,100876.75
2022-09-12T06:38:57.102Z,100876.91
2022-09-12T06:41:24.403Z,100873.19
2022-09-12T06:43:50.912Z,100867.41
2022-09-12T06:46:17.444Z,100852.13
2022-09-12T06:48:44.017Z,100865.56
2022-09-12T06:51:14.861Z,100862.28
2022-09-12T06:53:42.240Z,100869.59
2022-09-12T06:56:19.169Z,100864.84
2022-09-12T06:58:47.405Z,100857.91
2022-09-12T07:01:22.226Z,100868.66
2022-09-12T07:03:53.939Z,100836.03
2022-09-12T07:06:31.453Z,100860.28
2022-09-12T07:09:02.405Z,100864.75
2022-09-12T07:11:34.119Z,100872.34
2022-09-12T07:14:02.689Z,100840.94
2022-09-12T07:16:30.433Z,100877.63
2022-09-12T07:19:01.979Z,100861.09
2022-09-12T07:21:29.485Z,100881.34
2022-09-12T07:23:57.819Z,100884.09
2022-09-12T07:26:26.895Z,100880.91
2022-09-12T07:28:54.607Z,100887.03
2022-09-12T07:31:25.635Z,100879.84
2022-09-12T07:33:54.599Z,100854.03
2022-09-12T07:36:23.709Z,100836.06
2022-09-12T07:38:57.728Z,100874.44
2022-09-12T07:41:33.500Z,100882.09
2022-09-12T07:44:01.237Z,100865.38
2022-09-12T07:46:29.508Z,100884.97
2022-09-12T07:48:58.145Z,100872.56
2022-09-12T07:51:26.438Z,100877.66
2022-09-12T07:53:53.264Z,100861.97
2022-09-12T07:56:21.108Z,100882.41
2022-09-12T07:58:48.357Z,100897.63
2022-09-12T08:01:17.510Z,100881.69
2022-09-12T08:03:45.973Z,100879.16
2022-09-12T08:06:15.319Z,100866.66
2022-09-12T08:08:42.384Z,100865.41
2022-09-12T08:11:13.862Z,100874.59
2022-09-12T08:13:41.577Z,100874.22
2022-09-12T08:16:12.397Z,100877.94
2022-09-12T08:18:39.596Z,100867.00
2022-09-12T08:21:08.255Z,100861.34
2022-09-12T08:23:34.809Z,100880.53
2022-09-12T08:26:06.100Z,100876.78
2022-09-12T08:28:34.180Z,100878.44
2022-09-12T08:31:21.824Z,100877.63
2022-09-12T08:33:48.475Z,100835.38
2022-09-12T08:36:15.946Z,100879.28
2022-09-12T08:38:44.831Z,100874.41
2022-09-12T08:41:28.039Z,100872.56
2022-09-12T08:44:26.548Z,100875.38
2022-09-12T08:47:17.244Z,100876.06
2022-09-12T08:50:01.118Z,100878.50
2022-09-12T08:52:39.839Z,100872.22
2022-09-12T08:55:18.160Z,100857.56
2022-09-12T08:57:47.777Z,100866.50
2022-09-12T09:00:15.725Z,100863.66
2022-09-12T09:02:54.372Z,100835.38
2022-09-12T09:05:52.010Z,100829.91
2022-09-12T09:08:50.600Z,100862.31
2022-09-12T09:12:02.318Z,100862.34
2022-09-12T09:15:01.790Z,100863.19
2022-09-12T09:17:43.682Z,100861.31
2022-09-12T09:20:36.309Z,100861.06
2022-09-12T09:23:17.506Z,100857.72
2022-09-12T09:26:00.505Z,100828.97
2022-09-12T09:28:57.173Z,100854.88
2022-09-12T09:31:28.911Z,100852.25
2022-09-12T09:33:55.640Z,100842.28
2022-09-12T09:36:25.184Z,100840.25
2022-09-12T09:39:05.747Z,100813.50
2022-09-12T09:41:41.765Z,100830.13
2022-09-12T09:46:39.769Z,100834.47
2022-09-12T09:49:07.165Z,100831.09
2022-09-12T09:51:39.689Z,100833.91
2022-09-12T09:54:22.555Z,100829.94
2022-09-12T09:56:49.191Z,100825.09
2022-09-12T09:59:19.687Z,100831.19
2022-09-12T10:01:52.792Z,100816.88
2022-09-12T10:04:22.382Z,100819.66
2022-09-12T10:06:52.172Z,100800.69
2022-09-12T10:09:20.180Z,100791.72
2022-09-12T10:11:47.800Z,100764.50
2022-09-12T10:14:30.813Z,100778.41
2022-09-12T10:16:58.291Z,100783.97
2022-09-12T10:19:37.169Z,100777.31
2022-09-12T10:22:04.868Z,100778.09
2022-09-12T10:24:37.130Z,100783.22
2022-09-12T10:27:12.650Z,100772.44
2022-09-12T10:29:59.304Z,100766.09
2022-09-12T10:32:30.695Z,100769.16
2022-09-12T10:35:03.409Z,100769.13
2022-09-12T10:37:35.507Z,100758.44
2022-09-12T10:40:03.924Z,100746.75
2022-09-12T10:42:49.370Z,100763.31
2022-09-12T10:45:24.978Z,100761.47
2022-09-12T10:47:53.652Z,100745.72
2022-09-12T10:50:31.673Z,100766.47
2022-09-12T10:53:19.616Z,100751.94
2022-09-12T10:56:10.445Z,100756.97
2022-09-12T10:58:43.199Z,100755.22
2022-09-12T11:01:24.867Z,100746.94
2022-09-12T11:04:20.728Z,100757.03
2022-09-12T11:06:58.788Z,100747.88
2022-09-12T11:10:01.642Z,100743.88
2022-09-12T11:13:13.148Z,100744.19
2022-09-12T11:16:02.464Z,100734.81
2022-09-12T11:18:53.856Z,100732.41
2022-09-12T11:21:48.156Z,100733.47
2022-09-12T11:24:28.296Z,100721.16
2022-09-12T11:27:09.923Z,100714.78
2022-09-12T11:29:36.375Z,100708.53
2022-09-12T11:32:17.590Z,100715.81
2022-09-12T11:34:55.997Z,100710.91
2022-09-12T11:37:56.526Z,100705.78
2022-09-12T11:40:30.409Z,100706.97
2022-09-12T11:43:07.750Z,100676.03
2022-09-12T11:45:45.088Z,100695.69
2022-09-12T11:48:21.472Z,100697.66
2022-09-12T11:50:48.019Z,100704.69
2022-09-12T11:53:23.013Z,100691.81
2022-09-12T11:55:55.425Z,100692.69
2022-09-12T11:58:24.537Z,100683.19
2022-09-12T12:00:54.590Z,100688.09
2022-09-12T12:03:27.500Z,100680.38
2022-09-12T12:06:19.197Z,100671.50
2022-09-12T12:08:46.743Z,100673.34
2022-09-12T12:11:16.482Z,100669.81
2022-09-12T12:13:49.870Z,100665.59
2022-09-12T12:16:32.257Z,100675.00
2022-09-12T12:19:07.591Z,100673.13
2022-09-12T12:21:41.338Z,100690.91
2022-09-12T12:24:07.726Z,100685.44
2022-09-12T12:26:40.589Z,100687.81
2022-09-12T12:29:21.934Z,100692.88
2022-09-12T12:32:11.636Z,100695.28
2022-09-12T12:34:46.000Z,100683.41
2022-09-12T12:37:21.548Z,100674.19
2022-09-12T12:39:48.311Z,100680.53
2022-09-12T12:42:35.888Z,100680.81
2022-09-12T12:45:04.169Z,100673.91
2022-09-12T12:47:40.861Z,100645.69
2022-09-12T12:50:10.278Z,100656.34
2022-09-12T12:52:48.759Z,100657.91
2022-09-12T12:55:38.619Z,100665.16
2022-09-12T12:58:32.956Z,100656.13
2022-09-12T13:01:07.060Z,100622.41
2022-09-12T13:03:34.186Z,100643.03
2022-09-12T13:06:03.227Z,100640.09
2022-09-12T13:08:32.456Z,100633.13
2022-09-12T13:11:11.399Z,100633.41
2022-09-12T13:13:41.565Z,100600.44
2022-09-12T13:16:10.681Z,100628.94
2022-09-12T13:18:46.578Z,100626.03
2022-09-12T13:21:17.766Z,100620.38
2022-09-12T13:23:45.099Z,100616.25
2022-09-12T13:26:22.906Z,100612.09
2022-09-12T13:28:50.334Z,100604.75
2022-09-12T13:31:24.146Z,100607.94
2022-09-12T13:33:57.530Z,100600.84
2022-09-12T13:36:33.898Z,100601.78
2022-09-12T13:39:16.382Z,100598.41
2022-09-12T13:42:20.064Z,100591.84
2022-09-12T13:45:04.843Z,100598.06
2022-09-12T13:47:44.383Z,100592.78
2022-09-12T13:50:21.037Z,100580.25
2022-09-12T13:52:52.061Z,100584.38
2022-09-12T13:55:56.180Z,100572.34
2022-09-12T13:58:28.417Z,100579.34
2022-09-12T14:01:07.106Z,100574.41
2022-09-12T14:03:59.151Z,100550.47
2022-09-12T14:06:27.730Z,100572.34
2022-09-12T14:08:57.410Z,100578.22
2022-09-12T14:11:26.996Z,100569.81
2022-09-12T14:13:55.179Z,100563.63
2022-09-12T14:16:23.755Z,100557.00
2022-09-12T14:18:51.864Z,100553.63
2022-09-12T14:21:34.682Z,100559.22
2022-09-12T14:24:02.449Z,100557.09
2022-09-12T14:26:32.392Z,100538.91
2022-09-12T14:28:59.650Z,100550.38
2022-09-12T14:31:31.669Z,100529.66
2022-09-12T14:34:15.074Z,100558.13
2022-09-12T14:36:55.946Z,100553.16
2022-09-12T14:39:28.618Z,100550.88
2022-09-12T14:42:07.473Z,100552.00
2022-09-12T14:44:35.627Z,100544.84
2022-09-12T14:47:37.186Z,100528.78
2022-09-12T14:50:06.259Z,100510.47
2022-09-12T14:52:35.034Z,100534.59
2022-09-12T14:55:21.142Z,100534.19
2022-09-12T14:57:50.006Z,100507.66
2022-09-12T15:00:20.857Z,100503.31
2022-09-12T15:02:48.910Z,100519.00
2022-09-12T15:05:21.709Z,100520.97
2022-09-12T15:07:51.249Z,100511.09
2022-09-12T15:10:35.115Z,100513.19
2022-09-12T15:13:16.876Z,100506.88
2022-09-12T15:15:54.370Z,100512.56
2022-09-12T15:18:22.195Z,100500.53
2022-09-12T15:20:51.156Z,100498.00
2022-09-12T15:23:40.217Z,100497.88
2022-09-12T15:26:08.037Z,100504.34
2022-09-12T15:28:34.632Z,100498.16
2022-09-12T15:31:16.127Z,100473.75
2022-09-12T15:33:42.784Z,100494.13
2022-09-12T15:36:14.595Z,100489.81
2022-09-12T15:38:41.210Z,100485.78
2022-09-12T15:41:17.486Z,100498.59
2022-09-12T15:43:45.552Z,100473.66
2022-09-12T15:46:13.744Z,100474.38
2022-09-12T15:48:40.611Z,100480.66
2022-09-12T15:51:19.674Z,100481.06
2022-09-12T15:53:47.457Z,100462.56
2022-09-12T15:56:15.979Z,100474.13
2022-09-12T15:58:57.110Z,100473.91
2022-09-12T16:01:24.593Z,100471.13
2022-09-12T16:03:51.361Z,100465.34
2022-09-12T16:06:17.852Z,100459.44
2022-09-12T16:08:44.535Z,100456.59
2022-09-12T16:11:16.368Z,100471.16
2022-09-12T16:13:42.814Z,100471.88
2022-09-12T16:16:09.562Z,100455.41
2022-09-12T16:18:36.193Z,100436.47
2022-09-12T16:21:02.711Z,100467.53
2022-09-12T16:23:29.158Z,100472.63
2022-09-12T16:25:59.951Z,100465.47
2022-09-12T16:28:27.491Z,100439.16
2022-09-12T16:30:58.037Z,100459.78
2022-09-12T16:33:25.469Z,100455.09
2022-09-12T16:35:54.978Z,100453.44
2022-09-12T16:38:22.465Z,100458.41
2022-09-12T16:40:48.998Z,100441.84
2022-09-12T16:43:17.294Z,100419.19
2022-09-12T16:45:44.484Z,100455.44
2022-09-12T16:48:11.266Z,100453.53
2022-09-12T16:50:37.709Z,100448.34
2022-09-12T16:53:04.434Z,100435.78
2022-09-12T16:55:32.478Z,100404.72
2022-09-12T16:57:59.408Z,100437.00
2022-09-12T17:00:25.867Z,100426.88
2022-09-12T17:02:52.601Z,100436.38
2022-09-12T17:05:19.162Z,100430.78
2022-09-12T17:07:45.670Z,100428.28
2022-09-12T17:10:12.291Z,100428.81
2022-09-12T17:12:38.889Z,100421.25
2022-09-12T17:15:05.897Z,100430.16
2022-09-12T17:17:32.354Z,100406.78
2022-09-12T17:19:59.145Z,100423.91
2022-09-12T17:22:25.609Z,100425.41
2022-09-12T17:24:52.311Z,100428.50
2022-09-12T17:27:18.741Z,100411.06
2022-09-12T17:29:45.544Z,100415.31
2022-09-12T17:32:15.616Z,100420.09
2022-09-12T17:34:43.959Z,100421.56
2022-09-12T17:37:10.478Z,100408.50
2022-09-12T17:39:37.001Z,100397.16
2022-09-12T17:42:03.711Z,100403.19
2022-09-12T17:44:30.290Z,100408.94
2022-09-12T17:46:56.758Z,100409.22
2022-09-12T17:49:23.375Z,100417.34
2022-09-12T17:51:51.118Z,100421.34
2022-09-12T17:54:20.795Z,100421.66
2022-09-12T17:56:49.781Z,100420.81
2022-09-12T17:59:18.850Z,100421.63
2022-09-12T18:02:05.070Z,100394.81
2022-09-12T18:04:31.761Z,100423.72
2022-09-12T18:07:00.446Z,100411.28
2022-09-12T18:09:27.930Z,100424.59
2022-09-12T18:11:54.817Z,100420.44
2022-09-12T18:14:22.019Z,100427.75
2022-09-12T18:16:48.554Z,100420.63
2022-09-12T18:19:15.783Z,100422.94
2022-09-12T18:21:42.238Z,100433.78
2022-09-12T18:24:09.621Z,100422.94
2022-09-12T18:26:36.121Z,100425.66
2022-09-12T18:29:02.758Z,100385.25
2022-09-12T18:31:30.247Z,100425.88
2022-09-12T18:33:59.795Z,100422.53
2022-09-12T18:36:27.042Z,100406.69
2022-09-12T18:38:53.937Z,100423.13
2022-09-12T18:41:22.223Z,100410.84
2022-09-12T18:43:49.426Z,100421.25
2022-09-12T18:46:18.449Z,100395.16
2022-09-12T18:48:45.900Z,100404.94
2022-09-12T18:51:20.546Z,100376.19
2022-09-12T18:53:52.905Z,100403.19
2022-09-12T18:56:20.141Z,100376.28
2022-09-12T18:58:53.496Z,100403.59
2022-09-12T19:01:24.697Z,100416.88
2022-09-12T19:03:52.182Z,100399.41
2022-09-12T19:06:21.413Z,100416.06
2022-09-12T19:08:48.852Z,100418.09
2022-09-12T19:11:17.341Z,100412.72
2022-09-12T19:13:45.578Z,100406.91
2022-09-12T19:16:15.625Z,100406.28
2022-09-12T19:18:42.809Z,100414.00
2022-09-12T19:21:22.183Z,100402.56
2022-09-12T19:23:49.624Z,100409.00
2022-09-12T19:26:17.032Z,100401.91
2022-09-12T19:28:43.931Z,100396.88
2022-09-12T19:31:12.198Z,100406.66
2022-09-12T19:33:39.342Z,100385.22
2022-09-12T19:36:21.966Z,100382.31
2022-09-12T19:38:54.759Z,100384.06
2022-09-12T19:41:21.453Z,100386.34
2022-09-12T19:43:48.198Z,100393.84
2022-09-12T19:46:19.925Z,100374.88
2022-09-12T19:48:47.257Z,100371.13
2022-09-12T19:51:14.392Z,100378.47
2022-09-12T19:53:42.214Z,100378.03
2022-09-12T19:56:10.044Z,100381.19
2022-09-12T19:58:38.930Z,100377.59
2022-09-12T20:01:08.710Z,100374.09
2022-09-12T20:03:35.236Z,100372.25
2022-09-12T20:06:03.697Z,100374.09
2022-09-12T20:08:30.184Z,100373.91
2022-09-12T20:10:57.233Z,100378.28
2022-09-12T20:13:24.279Z,100369.00
2022-09-12T20:15:50.962Z,100370.50
2022-09-12T20:18:17.671Z,100374.47
2022-09-12T20:20:44.258Z,100353.97
2022-09-12T20:23:10.793Z,100333.59
2022-09-12T20:25:37.749Z,100360.50
2022-09-12T20:28:04.221Z,100365.53
2022-09-12T20:30:31.078Z,100370.69
2022-09-12T20:32:57.629Z,100362.19
2022-09-12T20:35:24.135Z,100364.44
2022-09-12T20:37:53.148Z,100356.72
2022-09-12T20:40:19.694Z,100358.81
2022-09-12T20:42:47.069Z,100364.16
2022-09-12T20:45:13.571Z,100356.91
2022-09-12T20:47:40.465Z,100354.44
2022-09-12T20:50:07.204Z,100311.72
2022-09-12T20:52:33.667Z,100344.97
2022-09-12T20:55:00.135Z,100321.31
2022-09-12T20:57:28.486Z,100310.78
2022-09-12T20:59:55.185Z,100324.38
2022-09-12T21:02:24.357Z,100309.19
2022-09-12T21:04:51.147Z,100329.44
2022-09-12T21:07:17.648Z,100322.34
2022-09-12T21:09:44.472Z,100297.28
2022-09-12T21:12:11.076Z,100291.31
2022-09-12T21:14:37.649Z,100317.16
2022-09-12T21:17:05.253Z,100311.38
2022-09-12T21:19:31.734Z,100274.09
2022-09-12T21:21:58.281Z,100298.63
2022-09-12T21:24:24.773Z,100265.53
2022-09-12T21:26:51.265Z,100275.50
2022-09-12T21:29:17.823Z,100290.13
2022-09-12T21:31:44.561Z,100286.78
2022-09-12T21:34:11.158Z,100280.34
2022-09-12T21:36:37.753Z,100285.75
2022-09-12T21:39:04.873Z,100270.25
2022-09-12T21:41:31.369Z,100265.97
2022-09-12T21:43:57.877Z,100265.91
2022-09-12T21:46:24.538Z,100251.25
2022-09-12T21:48:51.137Z,100270.69
2022-09-12T21:51:18.067Z,100226.44
2022-09-12T21:53:45.394Z,100270.81
2022-09-12T21:56:12.009Z,100278.34
2022-09-12T21:58:39.229Z,100277.13
2022-09-12T22:01:08.586Z,100287.53
2022-09-12T22:03:35.334Z,100282.53
2022-09-12T22:06:04.424Z,100277.28
2022-09-12T22:08:32.406Z,100280.94
2022-09-12T22:11:00.798Z,100290.47
2022-09-12T22:13:27.864Z,100274.06
2022-09-12T22:15:54.455Z,100298.78
2022-09-12T22:18:21.002Z,100285.28
2022-09-12T22:20:47.614Z,100289.09
2022-09-12T22:23:32.576Z,100246.84
2022-09-12T22:26:01.282Z,100265.50
2022-09-12T22:28:29.730Z,100256.34
2022-09-12T22:30:57.312Z,100264.31
2022-09-12T22:33:23.855Z,100227.09
2022-09-12T22:35:50.395Z,100284.03
2022-09-12T22:38:16.905Z,100241.66
2022-09-12T22:40:43.842Z,100258.47
2022-09-12T22:43:10.523Z,100287.94
2022-09-12T22:45:40.610Z,100292.41
2022-09-12T22:48:09.210Z,100289.31
2022-09-12T22:50:35.970Z,100286.72
2022-09-12T22:53:02.552Z,100240.44
2022-09-12T22:55:29.073Z,100266.97
2022-09-12T22:57:55.759Z,100280.78
2022-09-12T23:00:23.570Z,100282.81
2022-09-12T23:02:50.280Z,100266.56
2022-09-12T23:05:16.904Z,100289.13
2022-09-12T23:07:43.447Z,100252.88
2022-09-12T23:10:10.628Z,100254.41
2022-09-12T23:12:37.266Z,100244.16
2022-09-12T23:15:04.282Z,100285.72
2022-09-12T23:17:30.803Z,100276.25
2022-09-12T23:19:57.326Z,100274.91
2022-09-12T23:22:23.920Z,100279.84
2022-09-12T23:24:50.373Z,100277.97
2022-09-12T23:27:16.907Z,100283.69
2022-09-12T23:29:43.410Z,100292.03
2022-09-12T23:32:10.495Z,100279.25
2022-09-12T23:34:37.155Z,100280.25
2022-09-12T23:37:03.686Z,100284.84
2022-09-12T23:39:31.771Z,100298.88
2022-09-12T23:41:58.247Z,100257.97
2022-09-12T23:44:24.700Z,100261.22
2022-09-12T23:46:51.160Z,100257.13
2022-09-12T23:49:17.712Z,100292.84
2022-09-12T23:51:44.718Z,100280.75
2022-09-12T23:54:11.302Z,100280.66
2022-09-12T23:56:38.099Z,100268.91
2022-09-12T23:59:05.203Z,100264.25
